Time;durP1;ratioP1;P1;durP2;ratioP2;P2;SDS_P1;SDS_P2;PMS_P1;PMS_P2;Temp;Humidity;BMP_temperature;BMP_pressure;BME280_temperature;BME280_humidity;BME280_pressure;Samples;Min_cycle;Max_cycle;Signal;HPM_P1;HPM_P2
2022/08/13 00:01:12;;;;;;;29.13;27.77;;;16.60;96.30;;;;;;4992154;28;20191;-72
2022/08/13 00:03:38;;;;;;;19.97;19.00;;;16.50;97.20;;;;;;4993763;28;20944;-71
2022/08/13 00:06:08;;;;;;;14.37;13.73;;;16.50;98.00;;;;;;4994546;28;20185;-71
2022/08/13 00:08:35;;;;;;;11.57;11.03;;;16.50;98.80;;;;;;4990900;28;20250;-71
2022/08/13 00:11:05;;;;;;;14.40;13.70;;;16.50;99.30;;;;;;4990891;28;20211;-71
2022/08/13 00:13:32;;;;;;;33.23;31.33;;;16.40;99.90;;;;;;5001363;28;20548;-71
2022/08/13 00:16:00;;;;;;;38.07;36.27;;;16.40;99.90;;;;;;5010846;28;20615;-71
2022/08/13 00:18:31;;;;;;;54.63;51.97;;;16.40;99.90;;;;;;5009830;28;20284;-72
2022/08/13 00:20:58;;;;;;;53.53;51.00;;;16.30;99.90;;;;;;5010216;28;20222;-71
2022/08/13 00:23:27;;;;;;;36.87;35.07;;;16.20;99.90;;;;;;5008518;28;20176;-72
2022/08/13 00:25:56;;;;;;;22.70;21.60;;;16.20;99.90;;;;;;5011252;28;20597;-71
2022/08/13 00:28:28;;;;;;;25.07;23.57;;;16.10;99.90;;;;;;5010574;28;20628;-71
2022/08/13 00:30:57;;;;;;;36.23;34.23;;;16.00;99.90;;;;;;5010852;28;20198;-71
2022/08/13 00:33:23;;;;;;;28.33;26.90;;;15.90;99.90;;;;;;5002903;28;20176;-71
2022/08/13 00:35:54;;;;;;;123.73;117.60;;;15.70;99.90;;;;;;4991261;28;20706;-70
2022/08/13 00:38:23;;;;;;;157.03;149.23;;;15.70;99.90;;;;;;4989899;28;20263;-70
2022/08/13 00:40:52;;;;;;;130.23;123.67;;;15.80;99.90;;;;;;4990407;28;20633;-70
2022/08/13 00:43:18;;;;;;;82.53;78.50;;;15.90;99.90;;;;;;4998075;28;20271;-70
2022/08/13 00:45:44;;;;;;;47.77;45.43;;;16.00;99.90;;;;;;5009713;28;20188;-73
2022/08/13 00:51:10;;;;;;;76.37;72.67;;;15.90;99.90;;;;;;4978112;28;20565;-72
2022/08/13 00:53:38;;;;;;;118.50;112.73;;;15.80;99.90;;;;;;5001365;28;20267;-70
2022/08/13 00:56:05;;;;;;;126.93;120.67;;;15.80;99.90;;;;;;4990082;28;20216;-70
2022/08/13 00:58:34;;;;;;;101.03;96.10;;;15.80;99.90;;;;;;5005450;28;20199;-71
2022/08/13 01:01:01;;;;;;;104.13;99.03;;;15.70;99.90;;;;;;5010060;28;20610;-71
2022/08/13 01:03:31;;;;;;;97.60;92.80;;;15.70;99.90;;;;;;5014140;28;20218;-71
2022/08/13 01:05:59;;;;;;;97.73;93.00;;;15.70;99.90;;;;;;5014848;28;20664;-71
2022/08/13 01:08:27;;;;;;;89.00;84.70;;;15.60;99.90;;;;;;5012520;28;20204;-71
2022/08/13 01:10:56;;;;;;;59.23;56.10;;;15.50;99.90;;;;;;5011234;28;20231;-70
2022/08/13 01:13:26;;;;;;;47.27;45.03;;;15.40;99.90;;;;;;4993528;28;20239;-70
2022/08/13 01:15:52;;;;;;;32.40;30.87;;;15.30;99.90;;;;;;4994895;28;20216;-71
2022/08/13 01:18:23;;;;;;;23.93;22.80;;;15.30;99.90;;;;;;4993965;28;20287;-71
2022/08/13 01:20:58;;;;;;;18.47;17.60;;;15.30;99.90;;;;;;4995896;28;20188;-71
2022/08/13 01:23:24;;;;;;;17.70;16.87;;;15.30;99.90;;;;;;5013160;28;20198;-70
2022/08/13 01:25:52;;;;;;;18.20;17.30;;;15.30;99.90;;;;;;5014290;28;20184;-70
2022/08/13 01:28:19;;;;;;;15.07;14.37;;;15.30;99.90;;;;;;5011997;28;20798;-70
2022/08/13 01:30:46;;;;;;;17.03;16.23;;;15.30;99.90;;;;;;5012470;28;20184;-70
2022/08/13 01:33:17;;;;;;;27.37;25.70;;;15.20;99.90;;;;;;4994771;28;20196;-71
2022/08/13 01:35:45;;;;;;;18.40;17.30;;;15.20;99.90;;;;;;4994220;28;20216;-71
2022/08/13 01:38:14;;;;;;;13.57;12.90;;;15.20;99.90;;;;;;5007607;28;20211;-71
2022/08/13 01:40:40;;;;;;;23.60;22.40;;;15.20;99.90;;;;;;5011776;28;20211;-72
2022/08/13 01:43:07;;;;;;;15.23;14.33;;;15.10;99.90;;;;;;4993301;28;20180;-71
2022/08/13 01:45:34;;;;;;;119.10;112.47;;;15.10;99.90;;;;;;4994557;28;20192;-71
2022/08/13 01:50:46;;;;;;;281.90;265.87;;;14.80;99.90;;;;;;4995827;28;20568;-71
2022/08/13 01:53:16;;;;;;;149.30;140.97;;;14.70;99.90;;;;;;5014891;28;20191;-71
2022/08/13 01:55:54;;;;;;;88.10;83.20;;;14.60;99.90;;;;;;5014487;28;20211;-70
2022/08/13 01:58:23;;;;;;;87.27;82.70;;;14.40;99.90;;;;;;5012053;28;20212;-70
2022/08/13 02:00:54;;;;;;;57.37;54.37;;;14.30;99.90;;;;;;5012501;28;20230;-70
2022/08/13 02:03:21;;;;;;;61.13;58.13;;;14.30;99.90;;;;;;4993402;28;20544;-70
2022/08/13 02:05:49;;;;;;;109.47;103.80;;;14.20;99.90;;;;;;4993789;28;20208;-71
2022/08/13 02:08:22;;;;;;;119.10;113.07;;;14.00;99.90;;;;;;4992697;28;20200;-70
2022/08/13 02:10:50;;;;;;;133.20;126.53;;;14.00;99.90;;;;;;4993903;28;20199;-70
2022/08/13 02:13:22;;;;;;;64.67;61.50;;;14.10;99.90;;;;;;5013738;28;20183;-70
2022/08/13 02:15:49;;;;;;;70.03;66.57;;;14.10;99.90;;;;;;5013187;28;20222;-70
2022/08/13 02:18:18;;;;;;;88.07;83.73;;;14.10;99.90;;;;;;5012629;28;20195;-70
2022/08/13 02:20:49;;;;;;;138.00;131.17;;;14.00;99.90;;;;;;5012797;28;20661;-71
2022/08/13 02:23:19;;;;;;;125.57;119.23;;;14.00;99.90;;;;;;4993695;28;20177;-71
2022/08/13 02:25:46;;;;;;;125.77;119.50;;;14.00;99.90;;;;;;4993859;28;20193;-72
2022/08/13 02:28:14;;;;;;;139.10;131.57;;;14.00;99.90;;;;;;5022779;23;20222;-70
2022/08/13 02:30:42;;;;;;;119.87;113.87;;;14.00;99.90;;;;;;5032845;28;20187;-70
2022/08/13 02:33:08;;;;;;;121.30;115.23;;;14.00;99.90;;;;;;5032654;28;20258;-70
2022/08/13 02:35:36;;;;;;;108.20;102.90;;;14.00;99.90;;;;;;5032804;28;20213;-70
2022/08/13 02:38:04;;;;;;;99.90;95.00;;;14.00;99.90;;;;;;5031544;28;20817;-71
2022/08/13 02:43:14;;;;;;;100.07;95.30;;;14.00;99.90;;;;;;5023074;28;20682;-70
2022/08/13 02:45:40;;;;;;;85.70;81.63;;;14.00;99.90;;;;;;5031474;28;20211;-70
2022/08/13 02:48:06;;;;;;;76.97;73.23;;;14.00;99.90;;;;;;5047179;28;20211;-70
2022/08/13 02:50:42;;;;;;;88.00;83.70;;;14.00;99.90;;;;;;5046089;28;20183;-70
2022/08/13 02:53:13;;;;;;;63.93;60.77;;;14.00;99.90;;;;;;5047452;28;20186;-70
2022/08/13 02:55:41;;;;;;;78.77;74.77;;;13.90;99.90;;;;;;5032442;28;20214;-70
2022/08/13 02:58:07;;;;;;;71.47;68.03;;;13.90;99.90;;;;;;5031700;28;20191;-71
2022/08/13 03:00:34;;;;;;;67.17;63.70;;;13.90;99.90;;;;;;5031711;28;20715;-71
2022/08/13 03:03:00;;;;;;;62.50;59.50;;;13.90;99.90;;;;;;5032262;28;20183;-70
2022/08/13 03:05:30;;;;;;;47.80;45.50;;;13.80;99.90;;;;;;5047740;28;20187;-70
2022/08/13 03:07:57;;;;;;;42.17;40.10;;;13.80;99.90;;;;;;5031288;28;20203;-70
2022/08/13 03:10:25;;;;;;;69.93;66.50;;;13.80;99.90;;;;;;5031831;28;20183;-70
2022/08/13 03:13:00;;;;;;;68.83;65.43;;;13.80;99.90;;;;;;5047600;28;20179;-70
2022/08/13 03:15:28;;;;;;;59.13;56.13;;;13.80;99.90;;;;;;5032162;28;20580;-70
2022/08/13 03:17:54;;;;;;;49.33;46.83;;;13.70;99.90;;;;;;5031133;28;20199;-70
2022/08/13 03:20:20;;;;;;;53.30;50.67;;;13.70;99.90;;;;;;5043807;28;20266;-70
2022/08/13 03:22:52;;;;;;;21.13;19.85;;;13.70;99.90;;;;;;5050255;28;20528;-70
2022/08/13 03:25:20;;;;;;;31.37;29.80;;;13.60;99.90;;;;;;5042424;28;20190;-70
2022/08/13 03:27:47;;;;;;;23.17;21.70;;;13.50;99.90;;;;;;5030742;28;20241;-70
2022/08/13 03:30:16;;;;;;;34.50;32.43;;;13.40;99.90;;;;;;5030649;28;20190;-70
2022/08/13 03:32:44;;;;;;;83.43;79.37;;;13.40;99.90;;;;;;5031900;28;20241;-70
2022/08/13 03:35:13;;;;;;;20.03;18.90;;;13.30;99.90;;;;;;5046985;28;20206;-70
2022/08/13 03:37:42;;;;;;;19.17;18.17;;;13.40;99.90;;;;;;5030682;28;20175;-69
2022/08/13 03:40:10;;;;;;;19.90;18.83;;;13.40;99.90;;;;;;5031282;28;20241;-69
2022/08/13 03:42:35;;;;;;;70.40;66.70;;;13.20;99.90;;;;;;5047224;28;20210;-69
2022/08/13 03:45:03;;;;;;;48.63;45.77;;;13.20;99.90;;;;;;5031880;28;20222;-69
2022/08/13 03:47:30;;;;;;;33.30;31.53;;;13.10;99.90;;;;;;5030655;28;20659;-69
2022/08/13 03:49:58;;;;;;;35.17;33.47;;;13.00;99.90;;;;;;5031307;28;20207;-69
2022/08/13 03:52:24;;;;;;;32.13;30.47;;;13.00;99.90;;;;;;5031370;28;20214;-72
2022/08/13 03:54:50;;;;;;;53.50;50.70;;;13.00;99.90;;;;;;5031169;28;20237;-73
2022/08/13 03:57:19;;;;;;;78.43;74.20;;;12.90;99.90;;;;;;5030807;28;20187;-73
2022/08/13 03:59:48;;;;;;;81.67;77.53;;;12.80;99.90;;;;;;5046496;28;20337;-73
2022/08/13 04:02:15;;;;;;;55.47;51.47;;;12.80;99.90;;;;;;5043388;28;20183;-84
2022/08/13 04:04:47;;;;;;;29.37;27.87;;;12.80;99.90;;;;;;5031118;28;20199;-74
2022/08/13 04:07:18;;;;;;;27.63;26.20;;;12.90;99.90;;;;;;5030844;28;20179;-74
2022/08/13 04:09:45;;;;;;;35.70;33.70;;;12.80;99.90;;;;;;5030393;28;20348;-72
2022/08/13 04:12:12;;;;;;;30.17;28.47;;;12.80;99.90;;;;;;5031085;28;20613;-74
2022/08/13 04:14:42;;;;;;;38.40;36.20;;;12.90;99.90;;;;;;5031243;28;20201;-74
2022/08/13 04:17:11;;;;;;;43.13;40.47;;;12.90;99.90;;;;;;5029023;28;20194;-74
2022/08/13 04:19:41;;;;;;;47.23;44.63;;;12.80;99.90;;;;;;5030974;28;20313;-74
2022/08/13 04:22:10;;;;;;;24.27;22.83;;;12.80;99.90;;;;;;5030501;28;20179;-74
2022/08/13 04:24:36;;;;;;;27.77;26.37;;;12.90;99.90;;;;;;5046003;28;20181;-75
2022/08/13 04:27:04;;;;;;;40.63;38.43;;;12.90;99.90;;;;;;5030438;28;20214;-74
2022/08/13 04:29:30;;;;;;;25.63;24.07;;;12.90;99.90;;;;;;5046379;28;20226;-72
2022/08/13 04:31:56;;;;;;;43.20;40.90;;;13.00;99.90;;;;;;5044897;28;20185;-71
2022/08/13 04:34:25;;;;;;;52.17;49.27;;;13.10;99.90;;;;;;5031160;28;20622;-72
2022/08/13 04:36:51;;;;;;;58.17;54.70;;;13.20;99.90;;;;;;5030334;28;20305;-74
2022/08/13 04:39:17;;;;;;;64.93;61.60;;;13.20;99.90;;;;;;5029135;28;20199;-74
2022/08/13 04:41:44;;;;;;;78.70;74.60;;;13.10;99.90;;;;;;5030244;28;20232;-72
2022/08/13 04:44:09;;;;;;;83.67;79.17;;;13.20;99.90;;;;;;5025171;28;20183;-73
2022/08/13 04:46:35;;;;;;;79.80;75.70;;;13.20;99.90;;;;;;5025613;28;20222;-72
2022/08/13 04:49:02;;;;;;;161.93;153.70;;;13.20;99.90;;;;;;5037846;28;20209;-73
2022/08/13 04:51:30;;;;;;;142.17;134.63;;;13.20;99.90;;;;;;5030379;28;20273;-74
2022/08/13 04:53:56;;;;;;;37.13;35.03;;;13.30;99.90;;;;;;5044458;28;20285;-74
2022/08/13 04:56:22;;;;;;;39.97;37.50;;;13.40;99.90;;;;;;5046193;28;20278;-73
2022/08/13 04:58:48;;;;;;;33.97;32.23;;;13.40;99.90;;;;;;5029676;28;20191;-74
2022/08/13 05:01:14;;;;;;;12.23;11.47;;;13.40;99.90;;;;;;5029870;28;20232;-74
2022/08/13 05:03:47;;;;;;;13.87;13.13;;;13.50;99.90;;;;;;5030223;28;20171;-74
2022/08/13 05:06:19;;;;;;;18.00;16.47;;;13.60;99.90;;;;;;5046399;28;20244;-72
2022/08/13 05:08:46;;;;;;;13.73;12.67;;;13.70;99.90;;;;;;5029298;28;20207;-72
2022/08/13 05:11:12;;;;;;;9.43;8.93;;;13.70;99.90;;;;;;5032588;28;20182;-71
2022/08/13 05:13:39;;;;;;;18.73;17.57;;;13.90;99.90;;;;;;5030001;28;20187;-72
2022/08/13 05:16:08;;;;;;;9.40;8.80;;;14.10;99.90;;;;;;5029783;28;20210;-71
2022/08/13 05:18:37;;;;;;;44.70;41.93;;;14.40;99.90;;;;;;5044821;28;20207;-73
2022/08/13 05:21:06;;;;;;;282.97;267.93;;;14.80;99.90;;;;;;5046139;28;20551;-72
2022/08/13 05:23:34;;;;;;;56.93;53.80;;;15.20;99.90;;;;;;5044756;28;20228;-72
2022/08/13 05:26:00;;;;;;;12.10;11.10;;;15.80;99.90;;;;;;5030974;28;20661;-72
2022/08/13 05:28:27;;;;;;;53.00;50.30;;;16.40;99.90;;;;;;5029908;28;20230;-72
2022/08/13 05:30:53;;;;;;;56.60;53.50;;;16.90;99.90;;;;;;5029948;28;20210;-71
2022/08/13 05:33:25;;;;;;;156.37;148.33;;;17.40;99.90;;;;;;5030468;28;20187;-72
2022/08/13 05:35:55;;;;;;;53.30;50.50;;;17.90;99.90;;;;;;5030443;28;20216;-72
2022/08/13 05:38:22;;;;;;;15.45;14.57;;;18.30;99.90;;;;;;5028635;28;20199;-72
2022/08/13 05:40:53;;;;;;;7.18;6.70;;;18.80;99.90;;;;;;5030783;28;20317;-72
2022/08/13 05:43:22;;;;;;;12.02;11.02;;;19.00;99.90;;;;;;5031662;28;20270;-72
2022/08/13 05:45:50;;;;;;;8.88;8.32;;;19.40;99.90;;;;;;5048954;28;20210;-72
2022/08/13 05:48:16;;;;;;;7.60;7.10;;;19.80;99.90;;;;;;5032251;28;20586;-72
2022/08/13 05:50:42;;;;;;;16.73;15.82;;;20.00;99.90;;;;;;5049586;28;20183;-71
2022/08/13 05:53:10;;;;;;;21.70;20.67;;;20.30;99.90;;;;;;5032848;28;20183;-72
2022/08/13 05:55:38;;;;;;;20.73;19.73;;;20.50;99.90;;;;;;5033768;28;20297;-72
2022/08/13 05:58:06;;;;;;;9.85;9.35;;;21.00;99.90;;;;;;5032643;28;20587;-72
2022/08/13 06:03:27;;;;;;;7.75;7.35;;;21.30;99.90;;;;;;5033320;28;20179;-72
2022/08/13 06:05:58;;;;;;;9.95;9.15;;;21.60;99.90;;;;;;5033947;28;20233;-72
2022/08/13 06:08:30;;;;;;;6.80;6.30;;;21.80;99.90;;;;;;5047441;28;20211;-72
2022/08/13 06:11:01;;;;;;;6.70;6.07;;;22.10;99.90;;;;;;5033520;28;20185;-72
2022/08/13 06:13:28;;;;;;;8.45;7.95;;;22.50;99.10;;;;;;5048460;28;20265;-72
2022/08/13 06:16:01;;;;;;;8.93;8.27;;;22.80;98.20;;;;;;5032296;28;20679;-72
2022/08/13 06:18:29;;;;;;;8.45;7.95;;;22.90;97.80;;;;;;5032485;28;20213;-72
2022/08/13 06:20:57;;;;;;;8.38;7.60;;;22.90;97.50;;;;;;5033579;28;20178;-72
2022/08/13 06:23:24;;;;;;;7.93;7.53;;;23.10;97.10;;;;;;5032261;28;20194;-72
2022/08/13 06:25:52;;;;;;;8.00;7.63;;;23.00;96.60;;;;;;5038978;28;20555;-72
2022/08/13 06:28:25;;;;;;;8.35;7.63;;;22.90;96.60;;;;;;5039726;28;20678;-77
2022/08/13 06:31:01;;;;;;;8.98;8.48;;;23.20;96.30;;;;;;5037191;28;20889;-72
2022/08/13 06:33:29;;;;;;;11.43;9.75;;;23.40;95.20;;;;;;5053337;28;20189;-72
2022/08/13 06:36:15;;;;;;;10.65;10.15;;;23.80;95.00;;;;;;5032842;28;20256;-72
2022/08/13 06:38:49;;;;;;;9.85;9.25;;;24.00;94.30;;;;;;5031587;28;20198;-72
2022/08/13 06:41:21;;;;;;;10.48;9.45;;;24.50;92.40;;;;;;5033259;28;20186;-78
2022/08/13 06:43:52;;;;;;;16.63;15.70;;;24.90;91.80;;;;;;5032626;28;20179;-78
2022/08/13 06:46:22;;;;;;;19.02;18.10;;;25.20;90.60;;;;;;5032753;28;20688;-79
2022/08/13 06:48:49;;;;;;;18.10;17.23;;;25.60;88.50;;;;;;5046815;28;20203;-78
2022/08/13 06:51:16;;;;;;;18.17;17.33;;;25.60;86.50;;;;;;5033165;28;20194;-78
2022/08/13 06:53:44;;;;;;;20.85;19.80;;;25.50;87.60;;;;;;5032593;28;20187;-78
2022/08/13 06:56:22;;;;;;;13.82;13.15;;;25.70;87.00;;;;;;5048578;28;20579;-77
2022/08/13 06:58:51;;;;;;;15.80;14.95;;;25.70;84.10;;;;;;5032307;28;20309;-76
2022/08/13 07:01:19;;;;;;;15.23;14.48;;;25.90;83.00;;;;;;5050716;28;20207;-77
2022/08/13 07:03:46;;;;;;;18.25;17.45;;;25.60;82.80;;;;;;5047481;28;20205;-78
2022/08/13 07:06:18;;;;;;;15.65;14.85;;;25.80;81.90;;;;;;5048149;28;20256;-77
2022/08/13 07:08:45;;;;;;;15.25;14.43;;;26.20;81.50;;;;;;5047216;28;20294;-78
2022/08/13 07:11:23;;;;;;;16.50;15.65;;;26.40;80.10;;;;;;5048347;28;20701;-77
2022/08/13 07:13:54;;;;;;;17.27;16.20;;;26.80;80.20;;;;;;5048176;28;20619;-77
2022/08/13 07:16:22;;;;;;;13.65;12.93;;;27.10;77.60;;;;;;5053535;28;20215;-79
2022/08/13 07:18:51;;;;;;;12.50;11.68;;;27.20;76.70;;;;;;5039361;28;20573;-79
2022/08/13 07:21:19;;;;;;;9.52;9.13;;;27.10;76.00;;;;;;5034321;28;20652;-79
2022/08/13 07:23:47;;;;;;;12.02;11.43;;;26.90;76.90;;;;;;5049469;28;20187;-76
2022/08/13 07:26:16;;;;;;;7.65;7.20;;;27.30;76.50;;;;;;5036338;28;20194;-77
2022/08/13 07:28:44;;;;;;;6.35;5.85;;;27.70;74.00;;;;;;5034781;28;20234;-75
2022/08/13 07:31:11;;;;;;;8.32;7.93;;;28.10;72.00;;;;;;5054100;28;20191;-77
2022/08/13 07:33:49;;;;;;;14.68;13.82;;;28.30;71.70;;;;;;5032976;28;20187;-78
2022/08/13 07:36:15;;;;;;;11.63;11.15;;;28.40;71.60;;;;;;5033221;28;20210;-79
2022/08/13 07:38:44;;;;;;;12.52;11.85;;;28.70;69.40;;;;;;5047139;28;20244;-78
2022/08/13 07:41:13;;;;;;;16.75;15.93;;;28.50;69.90;;;;;;5048308;28;20175;-77
2022/08/13 07:43:43;;;;;;;15.95;15.23;;;28.50;70.30;;;;;;5047194;28;20171;-79
2022/08/13 07:46:17;;;;;;;14.40;13.48;;;28.60;70.50;;;;;;5032241;28;20191;-78
2022/08/13 07:48:51;;;;;;;13.88;13.25;;;28.70;68.30;;;;;;5031593;28;20206;-79
2022/08/13 07:51:20;;;;;;;16.58;15.60;;;28.80;67.30;;;;;;5047317;28;20190;-79
2022/08/13 07:53:54;;;;;;;14.80;13.88;;;28.00;68.10;;;;;;5028080;28;20663;-79
2022/08/13 07:56:28;;;;;;;8.05;7.65;;;27.60;69.90;;;;;;5028444;28;20238;-81
2022/08/13 07:59:02;;;;;;;11.50;11.00;;;27.80;70.20;;;;;;5031819;28;20198;-79
2022/08/13 08:01:36;;;;;;;14.52;13.77;;;28.10;70.30;;;;;;5048176;28;20398;-79
2022/08/13 08:04:04;;;;;;;16.65;15.73;;;28.20;68.90;;;;;;5036706;28;20586;-79
2022/08/13 08:06:30;;;;;;;17.45;16.25;;;28.20;67.80;;;;;;5033401;28;20241;-79
2022/08/13 08:08:59;;;;;;;15.32;14.65;;;28.00;69.40;;;;;;5033562;28;20203;-79
2022/08/13 08:14:10;;;;;;;14.38;13.60;;;28.30;69.40;;;;;;5045625;28;20746;-78
2022/08/13 08:16:37;;;;;;;14.27;13.68;;;27.80;68.30;;;;;;5050172;28;20202;-78
2022/08/13 08:19:04;;;;;;;7.95;7.45;;;27.40;70.60;;;;;;5064260;28;20687;-78
2022/08/13 08:21:32;;;;;;;6.97;6.68;;;27.10;70.40;;;;;;5049810;28;20228;-78
2022/08/13 08:24:01;;;;;;;10.15;9.63;;;27.00;71.00;;;;;;5036362;28;20186;-77
2022/08/13 08:26:32;;;;;;;28.73;27.20;;;26.50;72.10;;;;;;5027948;28;20195;-74
2022/08/13 08:29:03;;;;;;;30.17;28.60;;;26.10;77.60;;;;;;5035961;23;20278;-72
2022/08/13 08:31:30;;;;;;;24.95;23.70;;;25.90;76.40;;;;;;5007031;28;20594;-70
2022/08/13 08:33:57;;;;;;;38.25;36.40;;;25.80;76.20;;;;;;5016318;28;20181;-71
2022/08/13 08:36:24;;;;;;;44.63;42.30;;;26.00;77.10;;;;;;4991352;28;20691;-72
2022/08/13 08:44:24;;;;;;;20.05;19.05;;;27.70;73.00;;;;;;5008754;28;20179;-71
2022/08/13 08:46:56;;;;;;;16.75;15.60;;;28.10;69.90;;;;;;5013553;28;20184;-71
2022/08/13 08:49:24;;;;;;;17.58;16.75;;;27.90;70.50;;;;;;5009347;28;20214;-72
2022/08/13 08:51:51;;;;;;;14.10;13.32;;;27.60;72.30;;;;;;5009310;28;20660;-72
2022/08/13 08:54:18;;;;;;;32.70;30.95;;;27.60;71.10;;;;;;5010322;28;20188;-71
2022/08/13 08:56:48;;;;;;;27.30;25.60;;;27.50;74.40;;;;;;5010439;28;20203;-71
2022/08/13 08:59:15;;;;;;;23.25;21.83;;;27.50;72.80;;;;;;5008949;28;20258;-71
2022/08/13 09:01:46;;;;;;;17.20;16.38;;;27.90;71.80;;;;;;5009100;28;20176;-72
2022/08/13 09:04:13;;;;;;;17.73;16.90;;;28.00;71.80;;;;;;5010519;28;20179;-72
2022/08/13 09:06:41;;;;;;;13.32;12.43;;;27.90;70.40;;;;;;5009548;28;20647;-72
2022/08/13 09:09:07;;;;;;;10.30;9.65;;;28.00;70.10;;;;;;5004567;28;20214;-71
2022/08/13 09:11:35;;;;;;;11.15;10.25;;;28.50;68.70;;;;;;4995385;28;20188;-71
2022/08/13 09:14:08;;;;;;;9.38;8.93;;;29.10;67.90;;;;;;4991573;28;20188;-73
2022/08/13 09:16:38;;;;;;;19.13;17.73;;;29.80;66.50;;;;;;4989754;28;20235;-73
2022/08/13 09:19:08;;;;;;;10.60;10.10;;;30.10;64.60;;;;;;4993700;28;20200;-74
2022/08/13 09:21:45;;;;;;;21.20;20.13;;;30.00;63.50;;;;;;4999124;28;20188;-73
2022/08/13 09:24:15;;;;;;;13.10;12.32;;;29.50;64.80;;;;;;5014337;28;20183;-71
2022/08/13 09:26:51;;;;;;;15.02;13.98;;;29.10;63.50;;;;;;5014414;28;20183;-70
2022/08/13 09:29:19;;;;;;;16.70;15.90;;;28.70;63.50;;;;;;5013142;28;20215;-72
2022/08/13 09:31:50;;;;;;;17.25;16.48;;;28.20;66.30;;;;;;5013346;28;20191;-72
2022/08/13 09:34:17;;;;;;;9.77;9.27;;;27.70;65.50;;;;;;5015267;28;20194;-72
2022/08/13 09:36:45;;;;;;;8.45;7.85;;;27.70;66.70;;;;;;5012875;28;20680;-71
2022/08/13 09:39:41;;;;;;;7.75;7.35;;;27.70;67.90;;;;;;5013386;28;20837;-72
2022/08/13 09:42:17;;;;;;;7.78;7.38;;;27.90;68.00;;;;;;5014093;28;20178;-73
2022/08/13 09:44:43;;;;;;;8.70;8.30;;;28.30;67.10;;;;;;5007675;28;20188;-71
2022/08/13 09:47:10;;;;;;;8.30;7.90;;;28.40;66.20;;;;;;5008915;28;20203;-70
2022/08/13 09:49:39;;;;;;;8.23;7.80;;;28.40;66.90;;;;;;4994215;28;20204;-71
2022/08/13 09:52:05;;;;;;;13.38;12.43;;;28.40;66.70;;;;;;5009541;28;20750;-71
2022/08/13 09:54:34;;;;;;;17.45;16.55;;;28.90;63.20;;;;;;5007033;28;20188;-70
2022/08/13 09:57:00;;;;;;;17.30;16.27;;;29.00;62.20;;;;;;5003284;28;20281;-70
2022/08/13 09:59:28;;;;;;;13.65;13.02;;;28.80;60.80;;;;;;5012278;28;20688;-70
2022/08/13 10:01:56;;;;;;;9.13;8.38;;;29.40;61.30;;;;;;5013770;28;20179;-70
2022/08/13 10:04:22;;;;;;;5.63;5.43;;;30.30;61.10;;;;;;5013832;28;20230;-70
2022/08/13 10:06:48;;;;;;;3.88;3.78;;;31.30;58.20;;;;;;5010240;28;20183;-70
2022/08/13 10:09:14;;;;;;;4.53;4.22;;;31.60;55.20;;;;;;5013537;28;20210;-70
2022/08/13 10:11:40;;;;;;;5.22;4.93;;;30.80;55.50;;;;;;5013970;28;20186;-72
2022/08/13 10:14:06;;;;;;;5.00;4.70;;;30.00;55.20;;;;;;5024933;28;20542;-69
2022/08/13 10:16:34;;;;;;;5.68;5.20;;;29.90;56.00;;;;;;5022788;28;20199;-70
2022/08/13 10:19:03;;;;;;;4.25;3.85;;;30.00;56.00;;;;;;5012832;28;20211;-70
2022/08/13 10:21:29;;;;;;;6.13;5.80;;;30.60;55.00;;;;;;5012599;28;20301;-70
2022/08/13 10:23:54;;;;;;;8.45;7.80;;;30.90;53.80;;;;;;5012804;28;20270;-70
2022/08/13 10:26:20;;;;;;;10.30;9.70;;;31.30;54.50;;;;;;5013211;28;20258;-71
2022/08/13 10:28:48;;;;;;;48.15;45.88;;;31.80;53.80;;;;;;5012049;28;20211;-71
2022/08/13 10:31:14;;;;;;;97.28;92.28;;;32.40;52.10;;;;;;5013495;28;20180;-71
2022/08/13 10:33:40;;;;;;;98.30;93.38;;;32.20;49.20;;;;;;5012100;28;20183;-72
2022/08/13 10:36:07;;;;;;;106.15;100.38;;;32.00;52.10;;;;;;5012984;28;20211;-80
2022/08/13 10:38:33;;;;;;;110.35;104.72;;;32.50;50.60;;;;;;5011154;28;20261;-70
2022/08/13 10:41:08;;;;;;;121.50;115.65;;;32.20;50.10;;;;;;5015855;28;20172;-69
2022/08/13 10:43:37;;;;;;;122.85;116.95;;;32.20;49.80;;;;;;5031589;28;20194;-69
2022/08/13 10:46:04;;;;;;;112.18;106.80;;;32.00;50.10;;;;;;5027375;28;20176;-71
2022/08/13 10:48:30;;;;;;;130.73;124.55;;;32.20;50.20;;;;;;5012938;28;20722;-69
2022/08/13 10:50:56;;;;;;;152.98;145.68;;;32.50;49.10;;;;;;5013173;28;20184;-70
2022/08/13 10:54:25;;;;;;;176.25;167.80;;;32.90;48.50;;;;;;5018567;28;20180;-69
2022/08/13 10:56:18;;;;;;;180.20;171.45;;;33.10;48.60;;;;;;5009075;28;20250;-69
2022/08/13 10:58:44;;;;;;;167.90;159.93;;;33.40;47.10;;;;;;5013173;28;20203;-69
2022/08/13 11:01:10;;;;;;;137.68;130.95;;;33.40;46.60;;;;;;5012923;28;20551;-70
2022/08/13 11:03:37;;;;;;;185.77;176.85;;;33.20;46.20;;;;;;5015980;28;20180;-77
2022/08/13 11:06:06;;;;;;;140.68;133.68;;;33.70;47.60;;;;;;5020373;28;20188;-77
2022/08/13 11:08:34;;;;;;;118.50;112.50;;;34.50;44.80;;;;;;5019816;28;20195;-77
2022/08/13 11:11:06;;;;;;;108.45;103.35;;;34.60;43.80;;;;;;5017136;28;20203;-78
2022/08/13 11:13:33;;;;;;;109.68;104.55;;;34.10;43.70;;;;;;5020672;28;20180;-76
2022/08/13 11:16:24;;;;;;;91.18;86.90;;;34.10;43.80;;;;;;5015739;28;20204;-78
2022/08/13 11:18:52;;;;;;;98.18;93.65;;;34.10;42.70;;;;;;5012893;28;20214;-78
2022/08/13 11:21:18;;;;;;;106.63;101.55;;;33.20;44.20;;;;;;5014515;28;20206;-76
2022/08/13 11:23:44;;;;;;;105.97;100.88;;;33.50;44.20;;;;;;5014441;28;20541;-78
2022/08/13 11:26:10;;;;;;;97.63;92.80;;;33.90;44.20;;;;;;5014723;28;20192;-78
2022/08/13 11:28:36;;;;;;;85.78;81.78;;;34.30;42.70;;;;;;5013283;28;20246;-76
2022/08/13 11:31:02;;;;;;;85.95;81.63;;;34.80;42.00;;;;;;5015674;28;20182;-76
2022/08/13 11:33:30;;;;;;;88.25;83.90;;;34.30;41.80;;;;;;5020374;28;20203;-76
2022/08/13 11:35:56;;;;;;;89.30;85.15;;;33.90;41.60;;;;;;5018192;28;20218;-77
2022/08/13 11:38:23;;;;;;;84.00;80.10;;;33.40;42.20;;;;;;5015962;28;20636;-77
2022/08/13 11:40:55;;;;;;;85.55;81.32;;;33.40;42.90;;;;;;5014531;28;20768;-77
2022/08/13 11:43:27;;;;;;;90.85;86.53;;;34.50;41.30;;;;;;5014160;28;20180;-77
2022/08/13 11:45:54;;;;;;;73.25;69.57;;;35.50;40.60;;;;;;5014561;28;20188;-77
2022/08/13 11:48:23;;;;;;;24.42;23.23;;;36.20;39.40;;;;;;5013268;28;20569;-79
2022/08/13 11:50:50;;;;;;;26.23;24.98;;;36.20;38.20;;;;;;5016819;28;20198;-77
2022/08/13 11:53:17;;;;;;;23.00;21.75;;;36.10;38.60;;;;;;5018027;28;20233;-77
2022/08/13 11:55:43;;;;;;;4.75;4.38;;;36.50;38.90;;;;;;5014223;28;20246;-78
2022/08/13 11:58:09;;;;;;;4.55;4.25;;;36.90;36.90;;;;;;5014733;28;20180;-78
2022/08/13 12:00:37;;;;;;;4.18;3.97;;;36.50;36.80;;;;;;5014827;28;20184;-77
2022/08/13 12:03:04;;;;;;;6.25;6.03;;;36.20;37.50;;;;;;5012643;28;20176;-76
2022/08/13 12:05:30;;;;;;;6.32;5.93;;;35.80;37.60;;;;;;5014611;28;20188;-78
2022/08/13 12:07:56;;;;;;;5.47;4.85;;;35.90;38.50;;;;;;5013167;28;20179;-77
2022/08/13 12:10:23;;;;;;;3.38;3.28;;;36.00;38.00;;;;;;5013035;28;20208;-78
2022/08/13 12:12:48;;;;;;;4.63;4.43;;;36.20;35.70;;;;;;5014105;28;20548;-78
2022/08/13 12:15:15;;;;;;;7.68;4.28;;;36.10;36.80;;;;;;5013660;28;20675;-76
2022/08/13 12:17:45;;;;;;;3.90;3.70;;;36.60;36.00;;;;;;5011863;28;20176;-77
2022/08/13 12:20:17;;;;;;;5.18;4.85;;;36.90;35.50;;;;;;5013940;28;20203;-78
2022/08/13 12:22:43;;;;;;;3.88;3.67;;;36.30;34.80;;;;;;5012613;28;20180;-78
2022/08/13 12:25:10;;;;;;;3.97;3.78;;;35.30;36.10;;;;;;5013317;28;20194;-77
2022/08/13 12:27:37;;;;;;;7.15;6.75;;;34.10;37.30;;;;;;5010886;28;20545;-78
2022/08/13 12:30:07;;;;;;;28.08;26.75;;;33.60;38.00;;;;;;5012028;28;20216;-77
2022/08/13 12:32:33;;;;;;;47.42;45.20;;;33.40;38.40;;;;;;5013042;28;20267;-78
2022/08/13 12:34:59;;;;;;;45.53;43.25;;;33.50;38.40;;;;;;5014019;28;20214;-78
2022/08/13 12:37:26;;;;;;;44.35;42.25;;;33.80;38.00;;;;;;5014007;28;20687;-77
2022/08/13 12:39:56;;;;;;;35.03;33.13;;;34.00;38.20;;;;;;5017857;28;20758;-77
2022/08/13 12:42:24;;;;;;;14.73;14.07;;;34.90;37.50;;;;;;5014941;28;20604;-75
2022/08/13 12:44:50;;;;;;;22.85;21.85;;;34.70;37.10;;;;;;5016460;28;20180;-78
2022/08/13 12:47:15;;;;;;;30.05;28.48;;;34.20;37.80;;;;;;5011124;28;20791;-78
2022/08/13 12:49:41;;;;;;;9.00;8.60;;;34.60;37.80;;;;;;5012146;28;20202;-78
2022/08/13 12:52:07;;;;;;;4.88;4.68;;;35.80;36.10;;;;;;5015143;28;20267;-78
2022/08/13 12:54:33;;;;;;;4.25;4.05;;;36.40;35.80;;;;;;5016280;28;20663;-76